^^
Station Historical Data
 
Daily Summary for April 26, 2018 Units:  English    Metric   Both
« Previous Day
Next Day »
Daily Weekly Monthly Yearly Custom
  Current: High: Low: Average:
Temperature: 82.9 °F TemperatureF °F 57.9 °F 69.4 °F
Dew Point: 55.4 °F DewpointF °F 55.4 °F 57.5 °F
Humidity: 39% Humidity% 39% 70%
Wind Speed: 0.0mph WindSpeedMPHmph 0.0mph 0mph
Wind Gust: 0.0mph WindSpeedGustMPHmph - -
WindCalm - - North
Pressure: 29.85 in PressureIn in 29.85 in -
Precipitation: 0.00 in      
Historical Graphs
 
 
Tabular Data for April 26, 2018
Time Temperature Dew Point Pressure Wind Wind Speed Wind Gust Humidity Rainfall Rate (Hourly) solar Conditions
TemperatureF °F DewpointF °F PressureIn in Calm     Humidity% HourlyPrecipIn in SolarRadiationWatts/m^2 W/m2 Conditions
00:02 66.9 °F 57.6 °F 29.95 in Calm     72% 0.00 in 0.0 W/m2 CLR
00:07 66.9 °F 57.6 °F 29.95 in Calm     72% 0.00 in 0.0 W/m2 CLR
00:12 66.9 °F 57.6 °F 29.95 in Calm     72% 0.00 in 0.0 W/m2 CLR
00:17 66.9 °F 57.6 °F 29.95 in Calm     72% 0.00 in 0.0 W/m2 CLR
00:22 66.9 °F 57.6 °F 29.95 in Calm     72% 0.00 in 0.0 W/m2 CLR
00:27 66.9 °F 57.6 °F 29.95 in Calm     72% 0.00 in 0.0 W/m2 CLR
00:32 66.9 °F 57.6 °F 29.95 in Calm     72% 0.00 in 0.0 W/m2 CLR
00:37 66.9 °F 57.6 °F 29.95 in Calm     72% 0.00 in 0.0 W/m2 CLR
00:42 66.9 °F 57.6 °F 29.95 in Calm     72% 0.00 in 0.0 W/m2 CLR
00:47 66.9 °F 57.6 °F 29.95 in Calm     72% 0.00 in 0.0 W/m2 CLR
00:52 66.9 °F 57.6 °F 29.95 in Calm     72% 0.00 in 0.0 W/m2 CLR
00:57 66.9 °F 57.6 °F 29.95 in Calm     72% 0.00 in 0.0 W/m2 CLR
01:02 64.9 °F 57.6 °F 29.94 in Calm     77% 0.00 in 0.0 W/m2 CLR
01:07 64.9 °F 57.6 °F 29.94 in Calm     77% 0.00 in 0.0 W/m2 CLR
01:12 64.9 °F 57.6 °F 29.94 in Calm     77% 0.00 in 0.0 W/m2 CLR
01:17 64.9 °F 57.6 °F 29.94 in Calm     77% 0.00 in 0.0 W/m2 CLR
01:22 64.9 °F 57.6 °F 29.94 in Calm     77% 0.00 in 0.0 W/m2 CLR
01:27 64.9 °F 57.6 °F 29.94 in Calm     77% 0.00 in 0.0 W/m2 CLR
01:32 64.9 °F 57.6 °F 29.94 in Calm     77% 0.00 in 0.0 W/m2 CLR
01:37 64.9 °F 57.6 °F 29.94 in Calm     77% 0.00 in 0.0 W/m2 CLR
01:42 64.9 °F 57.6 °F 29.94 in Calm     77% 0.00 in 0.0 W/m2 CLR
01:47 64.9 °F 57.6 °F 29.94 in Calm     77% 0.00 in 0.0 W/m2 CLR
01:52 64.9 °F 57.6 °F 29.94 in Calm     77% 0.00 in 0.0 W/m2 CLR
01:57 64.9 °F 57.6 °F 29.94 in Calm     77% 0.00 in 0.0 W/m2 CLR
02:02 60.1 °F 56.8 °F 29.92 in Calm     89% 0.00 in 0.0 W/m2 CLR
02:07 60.1 °F 56.8 °F 29.92 in Calm     89% 0.00 in 0.0 W/m2 CLR
02:12 60.1 °F 56.8 °F 29.92 in Calm     89% 0.00 in 0.0 W/m2 CLR
02:17 60.1 °F 56.8 °F 29.92 in Calm     89% 0.00 in 0.0 W/m2 CLR
02:22 60.1 °F 56.8 °F 29.92 in Calm     89% 0.00 in 0.0 W/m2 CLR
02:27 60.1 °F 56.8 °F 29.92 in Calm     89% 0.00 in 0.0 W/m2 CLR
02:32 60.1 °F 56.8 °F 29.92 in Calm     89% 0.00 in 0.0 W/m2 CLR
02:37 60.1 °F 56.8 °F 29.92 in Calm     89% 0.00 in 0.0 W/m2 CLR
02:42 60.1 °F 56.8 °F 29.92 in Calm     89% 0.00 in 0.0 W/m2 CLR
02:47 60.1 °F 56.8 °F 29.92 in Calm     89% 0.00 in 0.0 W/m2 CLR
02:52 60.1 °F 56.8 °F 29.92 in Calm     89% 0.00 in 0.0 W/m2 CLR
02:57 60.1 °F 56.8 °F 29.92 in Calm     89% 0.00 in 0.0 W/m2 CLR
03:02 60.1 °F 57.7 °F 29.91 in Calm     92% 0.00 in 0.0 W/m2 CLR
03:07 60.1 °F 57.7 °F 29.91 in Calm     92% 0.00 in 0.0 W/m2 CLR
03:12 60.1 °F 57.7 °F 29.91 in Calm     92% 0.00 in 0.0 W/m2 CLR
03:17 60.1 °F 57.7 °F 29.91 in Calm     92% 0.00 in 0.0 W/m2 CLR
03:22 60.1 °F 57.7 °F 29.91 in Calm     92% 0.00 in 0.0 W/m2 CLR
03:27 60.1 °F 57.7 °F 29.91 in Calm     92% 0.00 in 0.0 W/m2 CLR
03:32 60.1 °F 57.7 °F 29.91 in Calm     92% 0.00 in 0.0 W/m2 CLR
03:37 60.1 °F 57.7 °F 29.91 in Calm     92% 0.00 in 0.0 W/m2 CLR
03:42 60.1 °F 57.7 °F 29.91 in Calm     92% 0.00 in 0.0 W/m2 CLR
03:47 60.1 °F 57.7 °F 29.91 in Calm     92% 0.00 in 0.0 W/m2 CLR
03:52 60.1 °F 57.7 °F 29.91 in Calm     92% 0.00 in 0.0 W/m2 CLR
03:58 60.1 °F 57.7 °F 29.91 in Calm     92% 0.00 in 0.0 W/m2 CLR
04:03 57.9 °F 56.8 °F 29.91 in Calm     96% 0.00 in 0.0 W/m2 CLR
04:08 57.9 °F 56.8 °F 29.91 in Calm     96% 0.00 in 0.0 W/m2 CLR
04:13 57.9 °F 56.8 °F 29.91 in Calm     96% 0.00 in 0.0 W/m2 CLR
04:17 57.9 °F 56.8 °F 29.91 in Calm     96% 0.00 in 0.0 W/m2 CLR
04:23 57.9 °F 56.8 °F 29.91 in Calm     96% 0.00 in 0.0 W/m2 CLR
04:28 57.9 °F 56.8 °F 29.91 in Calm     96% 0.00 in 0.0 W/m2 CLR
04:33 57.9 °F 56.8 °F 29.91 in Calm     96% 0.00 in 0.0 W/m2 CLR
04:38 57.9 °F 56.8 °F 29.91 in Calm     96% 0.00 in 0.0 W/m2 CLR
04:43 57.9 °F 56.8 °F 29.91 in Calm     96% 0.00 in 0.0 W/m2 CLR
04:48 57.9 °F 56.8 °F 29.91 in Calm     96% 0.00 in 0.0 W/m2 CLR
04:53 57.9 °F 56.8 °F 29.91 in Calm     96% 0.00 in 0.0 W/m2 CLR
04:58 57.9 °F 56.8 °F 29.91 in Calm     96% 0.00 in 0.0 W/m2 CLR
05:03 59.0 °F 57.9 °F 29.91 in Calm     96% 0.00 in 0.0 W/m2 CLR
05:08 59.0 °F 57.9 °F 29.91 in Calm     96% 0.00 in 0.0 W/m2 CLR
05:13 59.0 °F 57.9 °F 29.91 in Calm     96% 0.00 in 0.0 W/m2 CLR
05:18 59.0 °F 57.9 °F 29.91 in Calm     96% 0.00 in 0.0 W/m2 CLR
05:23 59.0 °F 57.9 °F 29.91 in Calm     96% 0.00 in 0.0 W/m2 CLR
05:28 59.0 °F 57.9 °F 29.91 in Calm     96% 0.00 in 0.0 W/m2 CLR
05:33 59.0 °F 57.9 °F 29.91 in Calm     96% 0.00 in 0.0 W/m2 CLR
05:38 59.0 °F 57.9 °F 29.91 in Calm     96% 0.00 in 0.0 W/m2 CLR
05:43 59.0 °F 57.9 °F 29.91 in Calm     96% 0.00 in 0.0 W/m2 CLR
05:48 59.0 °F 57.9 °F 29.91 in Calm     96% 0.00 in 0.0 W/m2 CLR
05:53 59.0 °F 57.9 °F 29.91 in Calm     96% 0.00 in 0.0 W/m2 CLR
05:58 59.0 °F 57.9 °F 29.91 in Calm     96% 0.00 in 0.0 W/m2 CLR
06:03 57.9 °F 56.8 °F 29.91 in Calm     96% 0.00 in 0.0 W/m2 CLR
06:08 57.9 °F 56.8 °F 29.91 in Calm     96% 0.00 in 0.0 W/m2 CLR
06:13 57.9 °F 56.8 °F 29.91 in Calm     96% 0.00 in 0.0 W/m2 CLR
06:18 57.9 °F 56.8 °F 29.91 in Calm     96% 0.00 in 0.0 W/m2 CLR
06:23 57.9 °F 56.8 °F 29.91 in Calm     96% 0.00 in 0.0 W/m2 CLR
06:28 57.9 °F 56.8 °F 29.91 in Calm     96% 0.00 in 0.0 W/m2 CLR
06:33 57.9 °F 56.8 °F 29.91 in Calm     96% 0.00 in 0.0 W/m2 CLR
06:38 57.9 °F 56.8 °F 29.91 in Calm     96% 0.00 in 0.0 W/m2 CLR
06:43 57.9 °F 56.8 °F 29.91 in Calm     96% 0.00 in 0.0 W/m2 CLR
06:48 57.9 °F 56.8 °F 29.91 in Calm     96% 0.00 in 0.0 W/m2 CLR
06:53 57.9 °F 56.8 °F 29.91 in Calm     96% 0.00 in 0.0 W/m2 CLR
06:58 57.9 °F 56.8 °F 29.91 in Calm     96% 0.00 in 0.0 W/m2 CLR
07:03 59.0 °F 57.9 °F 29.91 in Calm     96% 0.00 in 0.0 W/m2 CLR
07:08 59.0 °F 57.9 °F 29.91 in Calm     96% 0.00 in 0.0 W/m2 CLR
07:13 59.0 °F 57.9 °F 29.91 in Calm     96% 0.00 in 0.0 W/m2 CLR
07:18 59.0 °F 57.9 °F 29.91 in Calm     96% 0.00 in 0.0 W/m2 CLR
07:23 59.0 °F 57.9 °F 29.91 in Calm     96% 0.00 in 0.0 W/m2 CLR
07:28 59.0 °F 57.9 °F 29.91 in Calm     96% 0.00 in 0.0 W/m2 CLR
07:33 59.0 °F 57.9 °F 29.91 in Calm     96% 0.00 in 0.0 W/m2 CLR
07:38 59.0 °F 57.9 °F 29.91 in Calm     96% 0.00 in 0.0 W/m2 CLR
07:43 59.0 °F 57.9 °F 29.91 in Calm     96% 0.00 in 0.0 W/m2 CLR
07:48 59.0 °F 57.9 °F 29.91 in Calm     96% 0.00 in 0.0 W/m2 BKN
07:53 59.0 °F 57.9 °F 29.91 in Calm     96% 0.00 in 0.0 W/m2 BKN
07:58 59.0 °F 57.9 °F 29.91 in Calm     96% 0.00 in 0.0 W/m2 BKN
08:03 62.1 °F 60.0 °F 29.93 in Calm     93% 0.00 in 0.0 W/m2 BKN
08:08 62.1 °F 60.0 °F 29.93 in Calm     93% 0.00 in 0.0 W/m2 BKN
08:13 62.1 °F 60.0 °F 29.93 in Calm     93% 0.00 in 0.0 W/m2 BKN
08:18 62.1 °F 60.0 °F 29.93 in Calm     93% 0.00 in 0.0 W/m2 SCT
08:23 62.1 °F 60.0 °F 29.93 in Calm     93% 0.00 in 0.0 W/m2 SCT
08:28 62.1 °F 60.0 °F 29.93 in Calm     93% 0.00 in 0.0 W/m2 SCT
08:33 62.1 °F 60.0 °F 29.93 in Calm     93% 0.00 in 0.0 W/m2 SCT
08:38 62.1 °F 60.0 °F 29.93 in Calm     93% 0.00 in 0.0 W/m2 SCT
08:43 62.1 °F 60.0 °F 29.93 in Calm     93% 0.00 in 0.0 W/m2 SCT
08:48 62.1 °F 60.0 °F 29.93 in Calm     93% 0.00 in 0.0 W/m2 SCT
08:53 62.1 °F 60.0 °F 29.93 in Calm     93% 0.00 in 0.0 W/m2 SCT
08:58 62.1 °F 60.0 °F 29.93 in Calm     93% 0.00 in 0.0 W/m2 SCT
09:03 66.9 °F 60.9 °F 29.95 in Calm     81% 0.00 in 0.0 W/m2 CLR
09:08 66.9 °F 60.9 °F 29.95 in Calm     81% 0.00 in 0.0 W/m2 CLR
09:13 66.9 °F 60.9 °F 29.95 in Calm     81% 0.00 in 0.0 W/m2 CLR
09:18 66.9 °F 60.9 °F 29.95 in Calm     81% 0.00 in 0.0 W/m2 CLR
09:23 66.9 °F 60.9 °F 29.95 in Calm     81% 0.00 in 0.0 W/m2 CLR
09:28 66.9 °F 60.9 °F 29.95 in Calm     81% 0.00 in 0.0 W/m2 CLR
09:33 66.9 °F 60.9 °F 29.95 in Calm     81% 0.00 in 0.0 W/m2 CLR
09:38 66.9 °F 60.9 °F 29.95 in Calm     81% 0.00 in 0.0 W/m2 CLR
09:43 66.9 °F 60.9 °F 29.95 in Calm     81% 0.00 in 0.0 W/m2 CLR
09:48 66.9 °F 60.9 °F 29.95 in Calm     81% 0.00 in 0.0 W/m2 CLR
09:53 66.9 °F 60.9 °F 29.95 in Calm     81% 0.00 in 0.0 W/m2 CLR
09:58 66.9 °F 60.9 °F 29.95 in Calm     81% 0.00 in 0.0 W/m2 CLR
10:03 71.1 °F 62.0 °F 29.95 in Calm     73% 0.00 in 0.0 W/m2 FEW
10:08 71.1 °F 62.0 °F 29.95 in Calm     73% 0.00 in 0.0 W/m2 FEW
10:13 71.1 °F 62.0 °F 29.95 in Calm     73% 0.00 in 0.0 W/m2 FEW
10:18 71.1 °F 62.0 °F 29.95 in Calm     73% 0.00 in 0.0 W/m2 FEW
10:23 71.1 °F 62.0 °F 29.95 in Calm     73% 0.00 in 0.0 W/m2 FEW
10:28 71.1 °F 62.0 °F 29.95 in Calm     73% 0.00 in 0.0 W/m2 FEW
10:33 71.1 °F 62.0 °F 29.95 in Calm     73% 0.00 in 0.0 W/m2 BKN
10:38 71.1 °F 62.0 °F 29.95 in Calm     73% 0.00 in 0.0 W/m2 BKN
10:43 71.1 °F 62.0 °F 29.95 in Calm     73% 0.00 in 0.0 W/m2 BKN
10:48 71.1 °F 62.0 °F 29.95 in Calm     73% 0.00 in 0.0 W/m2 BKN
10:53 71.1 °F 62.0 °F 29.95 in Calm     73% 0.00 in 0.0 W/m2 BKN
10:58 71.1 °F 62.0 °F 29.95 in Calm     73% 0.00 in 0.0 W/m2 BKN
11:03 73.9 °F 58.7 °F 29.94 in Calm     59% 0.00 in 0.0 W/m2 BKN
11:08 73.9 °F 58.7 °F 29.94 in Calm     59% 0.00 in 0.0 W/m2 BKN
11:13 73.9 °F 58.7 °F 29.94 in Calm     59% 0.00 in 0.0 W/m2 BKN
11:18 73.9 °F 58.7 °F 29.94 in Calm     59% 0.00 in 0.0 W/m2 FEW
11:23 73.9 °F 58.7 °F 29.94 in Calm     59% 0.00 in 0.0 W/m2 FEW
11:28 73.9 °F 58.7 °F 29.94 in Calm     59% 0.00 in 0.0 W/m2 FEW
11:33 73.9 °F 58.7 °F 29.94 in Calm     59% 0.00 in 0.0 W/m2 FEW
11:38 73.9 °F 58.7 °F 29.94 in Calm     59% 0.00 in 0.0 W/m2 FEW
11:43 73.9 °F 58.7 °F 29.94 in Calm     59% 0.00 in 0.0 W/m2 FEW
11:48 73.9 °F 58.7 °F 29.94 in Calm     59% 0.00 in 0.0 W/m2 FEW
11:53 73.9 °F 58.7 °F 29.94 in Calm     59% 0.00 in 0.0 W/m2 FEW
11:58 73.9 °F 58.7 °F 29.94 in Calm     59% 0.00 in 0.0 W/m2 FEW
12:03 75.0 °F 56.7 °F 29.94 in Calm     53% 0.00 in 0.0 W/m2 BKN
12:08 75.0 °F 56.7 °F 29.94 in Calm     53% 0.00 in 0.0 W/m2 BKN
12:13 75.0 °F 56.7 °F 29.94 in Calm     53% 0.00 in 0.0 W/m2 BKN
12:18 75.0 °F 56.7 °F 29.94 in Calm     53% 0.00 in 0.0 W/m2 BKN
12:23 75.0 °F 56.7 °F 29.94 in Calm     53% 0.00 in 0.0 W/m2 BKN
12:28 75.0 °F 56.7 °F 29.94 in Calm     53% 0.00 in 0.0 W/m2 BKN
12:30 75.0 °F 56.7 °F 29.94 in Calm     53% 0.00 in 0.0 W/m2 BKN
12:35 75.0 °F 56.7 °F 29.94 in Calm     53% 0.00 in 0.0 W/m2 BKN
12:40 75.0 °F 56.7 °F 29.94 in Calm     53% 0.00 in 0.0 W/m2 BKN
12:45 75.0 °F 56.7 °F 29.94 in Calm     53% 0.00 in 0.0 W/m2 BKN
12:50 75.0 °F 56.7 °F 29.94 in Calm     53% 0.00 in 0.0 W/m2 BKN
12:55 75.0 °F 56.7 °F 29.94 in Calm     53% 0.00 in 0.0 W/m2 BKN
13:00 75.0 °F 56.7 °F 29.94 in Calm     53% 0.00 in 0.0 W/m2 BKN
13:05 79.0 °F 57.6 °F 29.93 in Calm     48% 0.00 in 0.0 W/m2 BKN
13:10 79.0 °F 57.6 °F 29.93 in Calm     48% 0.00 in 0.0 W/m2 BKN
13:15 79.0 °F 57.6 °F 29.93 in Calm     48% 0.00 in 0.0 W/m2 BKN
13:20 79.0 °F 57.6 °F 29.93 in Calm     48% 0.00 in 0.0 W/m2 BKN
13:25 79.0 °F 57.6 °F 29.93 in Calm     48% 0.00 in 0.0 W/m2 BKN
13:30 79.0 °F 57.6 °F 29.93 in Calm     48% 0.00 in 0.0 W/m2 BKN
13:35 79.0 °F 57.6 °F 29.93 in Calm     48% 0.00 in 0.0 W/m2 BKN
13:40 79.0 °F 57.6 °F 29.93 in Calm     48% 0.00 in 0.0 W/m2 BKN
13:45 79.0 °F 57.6 °F 29.93 in Calm     48% 0.00 in 0.0 W/m2 BKN
13:50 79.0 °F 57.6 °F 29.93 in Calm     48% 0.00 in 0.0 W/m2 BKN
13:55 79.0 °F 57.6 °F 29.93 in Calm     48% 0.00 in 0.0 W/m2 BKN
14:00 79.0 °F 57.6 °F 29.93 in Calm     48% 0.00 in 0.0 W/m2 BKN
14:05 80.1 °F 56.8 °F 29.91 in Calm     45% 0.00 in 0.0 W/m2 FEW
14:10 80.1 °F 56.8 °F 29.91 in Calm     45% 0.00 in 0.0 W/m2 FEW
14:15 80.1 °F 56.8 °F 29.91 in Calm     45% 0.00 in 0.0 W/m2 FEW
14:20 80.1 °F 56.8 °F 29.91 in Calm     45% 0.00 in 0.0 W/m2 FEW
14:25 80.1 °F 56.8 °F 29.91 in Calm     45% 0.00 in 0.0 W/m2 FEW
14:30 80.1 °F 56.8 °F 29.91 in Calm     45% 0.00 in 0.0 W/m2 FEW
14:35 80.1 °F 56.8 °F 29.91 in Calm     45% 0.00 in 0.0 W/m2 FEW
14:40 80.1 °F 56.8 °F 29.91 in Calm     45% 0.00 in 0.0 W/m2 FEW
14:45 80.1 °F 56.8 °F 29.91 in Calm     45% 0.00 in 0.0 W/m2 FEW
14:50 80.1 °F 56.8 °F 29.91 in Calm     45% 0.00 in 0.0 W/m2 FEW
14:55 80.1 °F 56.8 °F 29.91 in Calm     45% 0.00 in 0.0 W/m2 FEW
15:00 80.1 °F 56.8 °F 29.91 in Calm     45% 0.00 in 0.0 W/m2 FEW
15:05 81.0 °F 57.0 °F 29.89 in Calm     44% 0.00 in 0.0 W/m2 BKN
15:10 81.0 °F 57.0 °F 29.89 in Calm     44% 0.00 in 0.0 W/m2 BKN
15:15 81.0 °F 57.0 °F 29.89 in Calm     44% 0.00 in 0.0 W/m2 BKN
15:20 81.0 °F 57.0 °F 29.89 in Calm     44% 0.00 in 0.0 W/m2 BKN
15:25 81.0 °F 57.0 °F 29.89 in Calm     44% 0.00 in 0.0 W/m2 BKN
15:30 81.0 °F 57.0 °F 29.89 in Calm     44% 0.00 in 0.0 W/m2 BKN
15:35 81.0 °F 57.0 °F 29.89 in Calm     44% 0.00 in 0.0 W/m2 BKN
15:40 81.0 °F 57.0 °F 29.89 in Calm     44% 0.00 in 0.0 W/m2 BKN
15:45 81.0 °F 57.0 °F 29.89 in Calm     44% 0.00 in 0.0 W/m2 BKN
15:50 81.0 °F 57.0 °F 29.89 in Calm     44% 0.00 in 0.0 W/m2 BKN
15:55 81.0 °F 57.0 °F 29.89 in Calm     44% 0.00 in 0.0 W/m2 BKN
16:00 81.0 °F 57.0 °F 29.89 in Calm     44% 0.00 in 0.0 W/m2 BKN
16:05 82.0 °F 57.3 °F 29.87 in Calm     43% 0.00 in 0.0 W/m2 BKN
16:10 82.0 °F 57.3 °F 29.87 in Calm     43% 0.00 in 0.0 W/m2 BKN
16:15 82.0 °F 57.3 °F 29.87 in Calm     43% 0.00 in 0.0 W/m2 BKN
16:20 82.0 °F 57.3 °F 29.87 in Calm     43% 0.00 in 0.0 W/m2 BKN
16:25 82.0 °F 57.3 °F 29.87 in Calm     43% 0.00 in 0.0 W/m2 BKN
16:30 82.0 °F 57.3 °F 29.87 in Calm     43% 0.00 in 0.0 W/m2 BKN
16:35 82.0 °F 57.3 °F 29.87 in Calm     43% 0.00 in 0.0 W/m2 BKN
16:40 82.0 °F 57.3 °F 29.87 in Calm     43% 0.00 in 0.0 W/m2 BKN
16:45 82.0 °F 57.3 °F 29.87 in Calm     43% 0.00 in 0.0 W/m2 BKN
16:50 82.0 °F 57.3 °F 29.87 in Calm     43% 0.00 in 0.0 W/m2 BKN
16:55 82.0 °F 57.3 °F 29.87 in Calm     43% 0.00 in 0.0 W/m2 BKN
17:00 82.0 °F 57.3 °F 29.87 in Calm     43% 0.00 in 0.0 W/m2 BKN
17:05 84.0 °F 56.4 °F 29.85 in Calm     39% 0.00 in 0.0 W/m2 FEW
17:10 84.0 °F 56.4 °F 29.85 in Calm     39% 0.00 in 0.0 W/m2 FEW
17:15 84.0 °F 56.4 °F 29.85 in Calm     39% 0.00 in 0.0 W/m2 FEW
17:20 84.0 °F 56.4 °F 29.85 in Calm     39% 0.00 in 0.0 W/m2 FEW
17:25 84.0 °F 56.4 °F 29.85 in Calm     39% 0.00 in 0.0 W/m2 FEW
17:30 84.0 °F 56.4 °F 29.85 in Calm     39% 0.00 in 0.0 W/m2 FEW
17:35 84.0 °F 56.4 °F 29.85 in Calm     39% 0.00 in 0.0 W/m2 FEW
17:40 84.0 °F 56.4 °F 29.85 in Calm     39% 0.00 in 0.0 W/m2 FEW
17:45 84.0 °F 56.4 °F 29.85 in Calm     39% 0.00 in 0.0 W/m2 FEW
17:50 84.0 °F 56.4 °F 29.85 in Calm     39% 0.00 in 0.0 W/m2 FEW
17:55 84.0 °F 56.4 °F 29.85 in Calm     39% 0.00 in 0.0 W/m2 FEW
18:00 84.0 °F 56.4 °F 29.85 in Calm     39% 0.00 in 0.0 W/m2 FEW
18:05 82.9 °F 55.4 °F 29.85 in Calm     39% 0.00 in 0.0 W/m2 FEW
18:10 82.9 °F 55.4 °F 29.85 in Calm     39% 0.00 in 0.0 W/m2 FEW
18:15 82.9 °F 55.4 °F 29.85 in Calm     39% 0.00 in 0.0 W/m2 FEW
18:20 82.9 °F 55.4 °F 29.85 in Calm     39% 0.00 in 0.0 W/m2 FEW
18:25 82.9 °F 55.4 °F 29.85 in Calm     39% 0.00 in 0.0 W/m2 FEW
18:30 82.9 °F 55.4 °F 29.85 in Calm     39% 0.00 in 0.0 W/m2 FEW
18:35 82.9 °F 55.4 °F 29.85 in Calm     39% 0.00 in 0.0 W/m2 FEW
18:40 82.9 °F 55.4 °F 29.85 in Calm     39% 0.00 in 0.0 W/m2 FEW
18:45 82.9 °F 55.4 °F 29.85 in Calm     39% 0.00 in 0.0 W/m2 FEW
18:50 82.9 °F 55.4 °F 29.85 in Calm     39% 0.00 in 0.0 W/m2 FEW
18:55 82.9 °F 55.4 °F 29.85 in Calm     39% 0.00 in 0.0 W/m2 FEW
19:00 82.9 °F 55.4 °F 29.85 in Calm     39% 0.00 in 0.0 W/m2 FEW
Lake Mary, FL, USA
Compliments of Weather Underground - 1.75 mb